sensor_id;sensor_type;location;lat;lon;timestamp;temperature;humidity
61253;DHT22;47127;47.516;8.596;2023-01-28T00:02:05;1.50;99.90
61253;DHT22;47127;47.516;8.596;2023-01-28T00:04:31;1.40;99.90
61253;DHT22;47127;47.516;8.596;2023-01-28T00:06:56;1.40;99.90
61253;DHT22;47127;47.516;8.596;2023-01-28T00:09:22;1.40;99.90
61253;DHT22;47127;47.516;8.596;2023-01-28T00:11:47;1.30;99.90
61253;DHT22;47127;47.516;8.596;2023-01-28T00:14:13;1.50;99.90
61253;DHT22;47127;47.516;8.596;2023-01-28T00:16:39;1.50;99.90
61253;DHT22;47127;47.516;8.596;2023-01-28T00:19:04;1.30;99.90
61253;DHT22;47127;47.516;8.596;2023-01-28T00:21:30;1.30;99.90
61253;DHT22;47127;47.516;8.596;2023-01-28T00:23:56;1.30;99.90
61253;DHT22;47127;47.516;8.596;2023-01-28T00:26:22;1.40;99.90
61253;DHT22;47127;47.516;8.596;2023-01-28T00:28:49;1.40;99.90
61253;DHT22;47127;47.516;8.596;2023-01-28T00:31:17;1.40;99.90
61253;DHT22;47127;47.516;8.596;2023-01-28T00:33:44;1.50;99.90
61253;DHT22;47127;47.516;8.596;2023-01-28T00:36:10;1.30;99.90
61253;DHT22;47127;47.516;8.596;2023-01-28T00:38:36;1.40;99.90
61253;DHT22;47127;47.516;8.596;2023-01-28T00:41:15;1.40;99.90
61253;DHT22;47127;47.516;8.596;2023-01-28T00:43:42;1.40;99.90
61253;DHT22;47127;47.516;8.596;2023-01-28T00:46:10;1.60;99.90
61253;DHT22;47127;47.516;8.596;2023-01-28T00:48:37;1.50;99.90
61253;DHT22;47127;47.516;8.596;2023-01-28T00:51:03;1.50;99.90
61253;DHT22;47127;47.516;8.596;2023-01-28T00:53:29;1.50;99.90
61253;DHT22;47127;47.516;8.596;2023-01-28T00:55:55;1.50;99.90
61253;DHT22;47127;47.516;8.596;2023-01-28T00:58:21;1.40;99.90
61253;DHT22;47127;47.516;8.596;2023-01-28T01:00:48;1.40;99.90
61253;DHT22;47127;47.516;8.596;2023-01-28T01:03:14;1.40;99.90
61253;DHT22;47127;47.516;8.596;2023-01-28T01:05:40;1.50;99.90
61253;DHT22;47127;47.516;8.596;2023-01-28T01:08:05;1.50;99.90
61253;DHT22;47127;47.516;8.596;2023-01-28T01:10:31;1.40;99.90
61253;DHT22;47127;47.516;8.596;2023-01-28T01:12:56;1.40;99.90
61253;DHT22;47127;47.516;8.596;2023-01-28T01:15:23;1.30;99.90
61253;DHT22;47127;47.516;8.596;2023-01-28T01:17:49;1.30;99.90
61253;DHT22;47127;47.516;8.596;2023-01-28T01:20:25;1.30;99.90
61253;DHT22;47127;47.516;8.596;2023-01-28T01:22:51;1.20;99.90
61253;DHT22;47127;47.516;8.596;2023-01-28T01:25:18;1.20;99.90
61253;DHT22;47127;47.516;8.596;2023-01-28T01:27:46;1.20;99.90
61253;DHT22;47127;47.516;8.596;2023-01-28T01:30:13;1.20;99.90
61253;DHT22;47127;47.516;8.596;2023-01-28T01:32:39;1.30;99.90
61253;DHT22;47127;47.516;8.596;2023-01-28T01:35:05;1.10;99.90
61253;DHT22;47127;47.516;8.596;2023-01-28T01:37:33;1.20;99.90
61253;DHT22;47127;47.516;8.596;2023-01-28T01:39:59;1.20;99.90
61253;DHT22;47127;47.516;8.596;2023-01-28T01:42:27;1.10;99.90
61253;DHT22;47127;47.516;8.596;2023-01-28T01:47:46;1.20;99.90
61253;DHT22;47127;47.516;8.596;2023-01-28T01:50:30;1.20;99.90
61253;DHT22;47127;47.516;8.596;2023-01-28T01:53:02;1.10;99.90
61253;DHT22;47127;47.516;8.596;2023-01-28T01:55:30;1.10;99.90
61253;DHT22;47127;47.516;8.596;2023-01-28T01:58:01;1.10;99.90
61253;DHT22;47127;47.516;8.596;2023-01-28T02:00:29;1.10;99.90
61253;DHT22;47127;47.516;8.596;2023-01-28T02:02:55;1.10;99.90
61253;DHT22;47127;47.516;8.596;2023-01-28T02:05:21;1.00;99.90
61253;DHT22;47127;47.516;8.596;2023-01-28T02:07:49;1.10;99.90
61253;DHT22;47127;47.516;8.596;2023-01-28T02:10:16;1.20;99.90
61253;DHT22;47127;47.516;8.596;2023-01-28T02:12:48;1.10;99.90
61253;DHT22;47127;47.516;8.596;2023-01-28T02:15:19;1.10;99.90
61253;DHT22;47127;47.516;8.596;2023-01-28T02:17:45;1.10;99.90
61253;DHT22;47127;47.516;8.596;2023-01-28T02:20:13;1.00;99.90
61253;DHT22;47127;47.516;8.596;2023-01-28T02:25:42;1.10;99.90
61253;DHT22;47127;47.516;8.596;2023-01-28T02:33:34;0.90;99.90
61253;DHT22;47127;47.516;8.596;2023-01-28T02:36:16;0.90;99.90
61253;DHT22;47127;47.516;8.596;2023-01-28T02:38:46;1.10;99.90
61253;DHT22;47127;47.516;8.596;2023-01-28T02:41:37;1.10;99.90
61253;DHT22;47127;47.516;8.596;2023-01-28T02:44:05;1.00;99.90
61253;DHT22;47127;47.516;8.596;2023-01-28T02:49:53;1.10;99.90
61253;DHT22;47127;47.516;8.596;2023-01-28T02:52:39;0.90;99.90
61253;DHT22;47127;47.516;8.596;2023-01-28T02:55:36;1.00;99.90
61253;DHT22;47127;47.516;8.596;2023-01-28T03:01:22;1.10;99.90
61253;DHT22;47127;47.516;8.596;2023-01-28T03:04:13;1.10;99.90
61253;DHT22;47127;47.516;8.596;2023-01-28T03:06:49;1.10;99.90
61253;DHT22;47127;47.516;8.596;2023-01-28T03:09:17;1.10;99.90
61253;DHT22;47127;47.516;8.596;2023-01-28T03:12:00;1.20;99.90
61253;DHT22;47127;47.516;8.596;2023-01-28T03:14:50;1.20;99.90
61253;DHT22;47127;47.516;8.596;2023-01-28T03:18:11;1.20;99.90
61253;DHT22;47127;47.516;8.596;2023-01-28T03:21:05;1.20;99.90
61253;DHT22;47127;47.516;8.596;2023-01-28T03:23:58;1.20;99.90
61253;DHT22;47127;47.516;8.596;2023-01-28T03:26:49;1.20;99.90
61253;DHT22;47127;47.516;8.596;2023-01-28T03:29:39;1.20;99.90
61253;DHT22;47127;47.516;8.596;2023-01-28T03:32:25;1.10;99.90
61253;DHT22;47127;47.516;8.596;2023-01-28T03:35:11;1.10;99.90
61253;DHT22;47127;47.516;8.596;2023-01-28T03:37:57;1.10;99.90
61253;DHT22;47127;47.516;8.596;2023-01-28T03:40:25;1.20;99.90
61253;DHT22;47127;47.516;8.596;2023-01-28T03:42:51;1.20;99.90
61253;DHT22;47127;47.516;8.596;2023-01-28T03:45:18;1.20;99.90
61253;DHT22;47127;47.516;8.596;2023-01-28T03:47:45;1.20;99.90
61253;DHT22;47127;47.516;8.596;2023-01-28T03:50:11;1.20;99.90
61253;DHT22;47127;47.516;8.596;2023-01-28T03:52:37;1.20;99.90
61253;DHT22;47127;47.516;8.596;2023-01-28T03:55:03;1.20;99.90
61253;DHT22;47127;47.516;8.596;2023-01-28T03:57:38;1.10;99.90
61253;DHT22;47127;47.516;8.596;2023-01-28T04:00:04;1.10;99.90
61253;DHT22;47127;47.516;8.596;2023-01-28T04:02:30;1.10;99.90
61253;DHT22;47127;47.516;8.596;2023-01-28T04:04:56;1.10;99.90
61253;DHT22;47127;47.516;8.596;2023-01-28T04:07:23;1.00;99.90
61253;DHT22;47127;47.516;8.596;2023-01-28T04:09:48;1.10;99.90
61253;DHT22;47127;47.516;8.596;2023-01-28T04:12:14;1.10;99.90
61253;DHT22;47127;47.516;8.596;2023-01-28T04:14:39;1.10;99.90
61253;DHT22;47127;47.516;8.596;2023-01-28T04:17:06;1.10;99.90
61253;DHT22;47127;47.516;8.596;2023-01-28T04:19:33;1.00;99.90
61253;DHT22;47127;47.516;8.596;2023-01-28T04:22:03;1.00;99.90
61253;DHT22;47127;47.516;8.596;2023-01-28T04:24:28;1.20;99.90
61253;DHT22;47127;47.516;8.596;2023-01-28T04:26:53;1.20;99.90
61253;DHT22;47127;47.516;8.596;2023-01-28T04:29:19;1.10;99.90
61253;DHT22;47127;47.516;8.596;2023-01-28T04:31:45;1.30;99.90
61253;DHT22;47127;47.516;8.596;2023-01-28T04:34:10;1.20;99.90
61253;DHT22;47127;47.516;8.596;2023-01-28T04:36:36;1.20;99.90
61253;DHT22;47127;47.516;8.596;2023-01-28T04:39:01;1.20;99.90
61253;DHT22;47127;47.516;8.596;2023-01-28T04:41:27;1.30;99.90
61253;DHT22;47127;47.516;8.596;2023-01-28T04:43:52;1.10;99.90
61253;DHT22;47127;47.516;8.596;2023-01-28T04:46:18;1.20;99.90
61253;DHT22;47127;47.516;8.596;2023-01-28T04:48:43;1.20;99.90
61253;DHT22;47127;47.516;8.596;2023-01-28T04:51:09;1.10;99.90
61253;DHT22;47127;47.516;8.596;2023-01-28T04:53:35;1.20;99.90
61253;DHT22;47127;47.516;8.596;2023-01-28T04:56:00;1.10;99.90
61253;DHT22;47127;47.516;8.596;2023-01-28T04:58:26;1.20;99.90
61253;DHT22;47127;47.516;8.596;2023-01-28T05:00:58;1.20;99.90
61253;DHT22;47127;47.516;8.596;2023-01-28T05:03:24;1.20;99.90
61253;DHT22;47127;47.516;8.596;2023-01-28T05:05:50;1.20;99.90
61253;DHT22;47127;47.516;8.596;2023-01-28T05:08:16;1.20;99.90
61253;DHT22;47127;47.516;8.596;2023-01-28T05:10:41;1.20;99.90
61253;DHT22;47127;47.516;8.596;2023-01-28T05:13:07;1.20;99.90
61253;DHT22;47127;47.516;8.596;2023-01-28T05:15:33;1.30;99.90
61253;DHT22;47127;47.516;8.596;2023-01-28T05:17:58;1.20;99.90
61253;DHT22;47127;47.516;8.596;2023-01-28T05:20:24;1.20;99.90
61253;DHT22;47127;47.516;8.596;2023-01-28T05:22:50;1.20;99.90
61253;DHT22;47127;47.516;8.596;2023-01-28T05:25:16;1.20;99.90
61253;DHT22;47127;47.516;8.596;2023-01-28T05:27:42;1.10;99.90
61253;DHT22;47127;47.516;8.596;2023-01-28T05:30:08;1.30;99.90
61253;DHT22;47127;47.516;8.596;2023-01-28T05:32:34;1.30;99.90
61253;DHT22;47127;47.516;8.596;2023-01-28T05:34:59;1.30;99.90
61253;DHT22;47127;47.516;8.596;2023-01-28T05:37:25;1.30;99.90
61253;DHT22;47127;47.516;8.596;2023-01-28T05:39:50;1.20;99.90
61253;DHT22;47127;47.516;8.596;2023-01-28T05:42:16;1.20;99.90
61253;DHT22;47127;47.516;8.596;2023-01-28T05:44:43;1.30;99.90
61253;DHT22;47127;47.516;8.596;2023-01-28T05:47:08;1.20;99.90
61253;DHT22;47127;47.516;8.596;2023-01-28T05:49:34;1.30;99.90
61253;DHT22;47127;47.516;8.596;2023-01-28T05:51:59;1.20;99.90
61253;DHT22;47127;47.516;8.596;2023-01-28T05:54:26;1.20;99.90
61253;DHT22;47127;47.516;8.596;2023-01-28T05:56:52;1.20;99.90
61253;DHT22;47127;47.516;8.596;2023-01-28T05:59:17;1.30;99.90
61253;DHT22;47127;47.516;8.596;2023-01-28T06:01:43;1.30;99.90
61253;DHT22;47127;47.516;8.596;2023-01-28T06:04:08;1.30;99.90
61253;DHT22;47127;47.516;8.596;2023-01-28T06:06:34;1.30;99.90
61253;DHT22;47127;47.516;8.596;2023-01-28T06:08:59;1.40;99.90
61253;DHT22;47127;47.516;8.596;2023-01-28T06:11:25;1.40;99.90
61253;DHT22;47127;47.516;8.596;2023-01-28T06:13:51;1.40;99.90
61253;DHT22;47127;47.516;8.596;2023-01-28T06:16:17;1.30;99.90
61253;DHT22;47127;47.516;8.596;2023-01-28T06:18:42;1.40;99.90
61253;DHT22;47127;47.516;8.596;2023-01-28T06:21:09;1.40;99.90
61253;DHT22;47127;47.516;8.596;2023-01-28T06:23:34;1.40;99.90
61253;DHT22;47127;47.516;8.596;2023-01-28T06:26:00;1.30;99.90
61253;DHT22;47127;47.516;8.596;2023-01-28T06:28:25;1.50;99.90
61253;DHT22;47127;47.516;8.596;2023-01-28T06:30:51;1.40;99.90
61253;DHT22;47127;47.516;8.596;2023-01-28T06:33:18;1.40;99.90
61253;DHT22;47127;47.516;8.596;2023-01-28T06:35:43;1.40;99.90
61253;DHT22;47127;47.516;8.596;2023-01-28T06:38:10;1.40;99.90
61253;DHT22;47127;47.516;8.596;2023-01-28T06:40:36;1.50;99.90
61253;DHT22;47127;47.516;8.596;2023-01-28T06:43:02;1.50;99.90
61253;DHT22;47127;47.516;8.596;2023-01-28T06:45:28;1.50;99.90
61253;DHT22;47127;47.516;8.596;2023-01-28T06:47:54;1.60;99.90
61253;DHT22;47127;47.516;8.596;2023-01-28T06:50:19;1.40;99.90
61253;DHT22;47127;47.516;8.596;2023-01-28T06:52:45;1.40;99.90
61253;DHT22;47127;47.516;8.596;2023-01-28T06:55:10;1.50;99.90
61253;DHT22;47127;47.516;8.596;2023-01-28T06:57:37;1.60;99.90
61253;DHT22;47127;47.516;8.596;2023-01-28T07:00:04;1.60;99.90
61253;DHT22;47127;47.516;8.596;2023-01-28T07:02:29;1.70;99.90
61253;DHT22;47127;47.516;8.596;2023-01-28T07:04:55;1.70;99.90
61253;DHT22;47127;47.516;8.596;2023-01-28T07:07:20;1.70;99.90
61253;DHT22;47127;47.516;8.596;2023-01-28T07:09:46;1.70;99.90
61253;DHT22;47127;47.516;8.596;2023-01-28T07:12:11;1.70;99.90
61253;DHT22;47127;47.516;8.596;2023-01-28T07:14:37;1.70;99.90
61253;DHT22;47127;47.516;8.596;2023-01-28T07:17:03;1.70;99.90
61253;DHT22;47127;47.516;8.596;2023-01-28T07:19:28;1.70;99.90
61253;DHT22;47127;47.516;8.596;2023-01-28T07:21:54;1.70;99.90
61253;DHT22;47127;47.516;8.596;2023-01-28T07:24:22;1.70;99.90
61253;DHT22;47127;47.516;8.596;2023-01-28T07:26:47;1.70;99.90
61253;DHT22;47127;47.516;8.596;2023-01-28T07:29:13;1.70;99.90
61253;DHT22;47127;47.516;8.596;2023-01-28T07:31:38;1.60;99.90
61253;DHT22;47127;47.516;8.596;2023-01-28T07:34:04;1.70;99.90
61253;DHT22;47127;47.516;8.596;2023-01-28T07:36:30;1.70;99.90
61253;DHT22;47127;47.516;8.596;2023-01-28T07:38:55;1.60;99.90
61253;DHT22;47127;47.516;8.596;2023-01-28T07:41:21;1.70;99.90
61253;DHT22;47127;47.516;8.596;2023-01-28T07:43:46;1.60;99.90
61253;DHT22;47127;47.516;8.596;2023-01-28T07:46:12;1.60;99.90
61253;DHT22;47127;47.516;8.596;2023-01-28T07:48:38;1.60;99.90
61253;DHT22;47127;47.516;8.596;2023-01-28T07:51:03;1.60;99.90
61253;DHT22;47127;47.516;8.596;2023-01-28T07:53:29;1.60;99.90
61253;DHT22;47127;47.516;8.596;2023-01-28T07:55:59;1.60;99.90
61253;DHT22;47127;47.516;8.596;2023-01-28T07:58:25;1.50;99.90
61253;DHT22;47127;47.516;8.596;2023-01-28T08:00:50;1.60;99.90
61253;DHT22;47127;47.516;8.596;2023-01-28T08:03:16;1.60;99.90
61253;DHT22;47127;47.516;8.596;2023-01-28T08:05:43;1.60;99.90
61253;DHT22;47127;47.516;8.596;2023-01-28T08:08:09;1.40;99.90
61253;DHT22;47127;47.516;8.596;2023-01-28T08:10:35;1.50;99.90
61253;DHT22;47127;47.516;8.596;2023-01-28T08:13:02;1.50;99.90
61253;DHT22;47127;47.516;8.596;2023-01-28T08:15:28;1.60;99.90
61253;DHT22;47127;47.516;8.596;2023-01-28T08:17:55;1.70;99.90
61253;DHT22;47127;47.516;8.596;2023-01-28T08:20:21;1.70;99.90
61253;DHT22;47127;47.516;8.596;2023-01-28T08:22:47;1.80;99.90
61253;DHT22;47127;47.516;8.596;2023-01-28T08:25:13;1.90;99.90
61253;DHT22;47127;47.516;8.596;2023-01-28T08:27:38;1.70;99.90
61253;DHT22;47127;47.516;8.596;2023-01-28T08:30:04;1.70;99.90
61253;DHT22;47127;47.516;8.596;2023-01-28T08:32:30;1.70;99.90
61253;DHT22;47127;47.516;8.596;2023-01-28T08:34:56;1.60;99.90
61253;DHT22;47127;47.516;8.596;2023-01-28T08:37:21;1.60;99.90
61253;DHT22;47127;47.516;8.596;2023-01-28T08:39:47;1.60;99.90
61253;DHT22;47127;47.516;8.596;2023-01-28T08:42:12;1.60;99.90
61253;DHT22;47127;47.516;8.596;2023-01-28T08:44:38;1.70;99.90
61253;DHT22;47127;47.516;8.596;2023-01-28T08:47:03;1.70;99.90
61253;DHT22;47127;47.516;8.596;2023-01-28T08:49:30;1.70;99.90
61253;DHT22;47127;47.516;8.596;2023-01-28T08:51:56;1.60;99.90
61253;DHT22;47127;47.516;8.596;2023-01-28T08:54:22;1.80;99.90
61253;DHT22;47127;47.516;8.596;2023-01-28T08:56:47;1.80;99.90
61253;DHT22;47127;47.516;8.596;2023-01-28T08:59:14;1.70;99.90
61253;DHT22;47127;47.516;8.596;2023-01-28T09:01:39;1.90;99.90
61253;DHT22;47127;47.516;8.596;2023-01-28T09:04:05;2.00;99.90
61253;DHT22;47127;47.516;8.596;2023-01-28T09:06:31;2.10;99.90
61253;DHT22;47127;47.516;8.596;2023-01-28T09:08:58;2.00;99.90
61253;DHT22;47127;47.516;8.596;2023-01-28T09:11:23;2.00;99.90
61253;DHT22;47127;47.516;8.596;2023-01-28T09:13:49;2.00;99.90
61253;DHT22;47127;47.516;8.596;2023-01-28T09:16:15;2.00;99.90
61253;DHT22;47127;47.516;8.596;2023-01-28T09:18:40;1.90;99.90
61253;DHT22;47127;47.516;8.596;2023-01-28T09:21:07;1.90;99.90
61253;DHT22;47127;47.516;8.596;2023-01-28T09:23:34;1.90;99.90
61253;DHT22;47127;47.516;8.596;2023-01-28T09:26:00;1.80;99.90
61253;DHT22;47127;47.516;8.596;2023-01-28T09:28:25;1.80;99.90
61253;DHT22;47127;47.516;8.596;2023-01-28T09:30:51;1.90;99.90
61253;DHT22;47127;47.516;8.596;2023-01-28T09:33:16;1.90;99.90
61253;DHT22;47127;47.516;8.596;2023-01-28T09:35:42;1.90;99.90
61253;DHT22;47127;47.516;8.596;2023-01-28T09:38:08;2.10;99.90
61253;DHT22;47127;47.516;8.596;2023-01-28T09:40:36;2.10;99.90
61253;DHT22;47127;47.516;8.596;2023-01-28T09:45:59;2.10;99.90
61253;DHT22;47127;47.516;8.596;2023-01-28T09:48:33;2.10;99.90
61253;DHT22;47127;47.516;8.596;2023-01-28T09:51:05;2.30;99.90
61253;DHT22;47127;47.516;8.596;2023-01-28T09:53:34;2.10;99.90
61253;DHT22;47127;47.516;8.596;2023-01-28T09:56:04;2.10;99.90
61253;DHT22;47127;47.516;8.596;2023-01-28T09:58:30;2.20;99.90
61253;DHT22;47127;47.516;8.596;2023-01-28T10:06:14;2.40;99.90
61253;DHT22;47127;47.516;8.596;2023-01-28T10:09:13;2.50;99.90
61253;DHT22;47127;47.516;8.596;2023-01-28T10:17:30;2.30;99.90
61253;DHT22;47127;47.516;8.596;2023-01-28T10:20:31;2.30;99.90
61253;DHT22;47127;47.516;8.596;2023-01-28T10:23:10;2.20;99.90
61253;DHT22;47127;47.516;8.596;2023-01-28T10:25:40;2.30;99.90
61253;DHT22;47127;47.516;8.596;2023-01-28T10:28:18;2.20;99.90
61253;DHT22;47127;47.516;8.596;2023-01-28T10:30:46;2.20;99.90
61253;DHT22;47127;47.516;8.596;2023-01-28T10:33:34;2.30;99.90
61253;DHT22;47127;47.516;8.596;2023-01-28T10:36:00;2.30;99.90
61253;DHT22;47127;47.516;8.596;2023-01-28T10:38:26;2.30;99.90
61253;DHT22;47127;47.516;8.596;2023-01-28T10:40:55;2.20;99.90
61253;DHT22;47127;47.516;8.596;2023-01-28T10:43:24;2.20;99.90
61253;DHT22;47127;47.516;8.596;2023-01-28T10:46:22;2.30;99.90
61253;DHT22;47127;47.516;8.596;2023-01-28T10:49:17;2.30;99.90
61253;DHT22;47127;47.516;8.596;2023-01-28T10:51:43;2.40;99.90
61253;DHT22;47127;47.516;8.596;2023-01-28T10:54:19;2.50;99.90
61253;DHT22;47127;47.516;8.596;2023-01-28T10:56:45;2.60;99.90
61253;DHT22;47127;47.516;8.596;2023-01-28T10:59:32;2.70;99.90
61253;DHT22;47127;47.516;8.596;2023-01-28T11:02:04;2.80;99.90
61253;DHT22;47127;47.516;8.596;2023-01-28T11:04:34;2.70;99.90
61253;DHT22;47127;47.516;8.596;2023-01-28T11:07:03;2.50;99.90
61253;DHT22;47127;47.516;8.596;2023-01-28T11:09:35;2.50;99.90
61253;DHT22;47127;47.516;8.596;2023-01-28T11:12:20;2.40;99.90
61253;DHT22;47127;47.516;8.596;2023-01-28T11:15:00;2.50;99.90
61253;DHT22;47127;47.516;8.596;2023-01-28T11:17:28;2.60;99.90
61253;DHT22;47127;47.516;8.596;2023-01-28T11:19:58;2.70;99.90
61253;DHT22;47127;47.516;8.596;2023-01-28T11:22:41;2.70;99.90
61253;DHT22;47127;47.516;8.596;2023-01-28T11:25:27;2.60;99.90
61253;DHT22;47127;47.516;8.596;2023-01-28T11:27:56;2.70;99.90
61253;DHT22;47127;47.516;8.596;2023-01-28T11:30:27;2.40;99.90
61253;DHT22;47127;47.516;8.596;2023-01-28T11:33:04;2.50;99.90
61253;DHT22;47127;47.516;8.596;2023-01-28T11:35:32;2.60;99.90
61253;DHT22;47127;47.516;8.596;2023-01-28T11:37:59;2.60;99.90
61253;DHT22;47127;47.516;8.596;2023-01-28T11:40:25;2.70;99.90
61253;DHT22;47127;47.516;8.596;2023-01-28T11:42:53;2.70;99.90
61253;DHT22;47127;47.516;8.596;2023-01-28T11:45:35;2.40;99.90
61253;DHT22;47127;47.516;8.596;2023-01-28T11:48:09;2.60;99.90
61253;DHT22;47127;47.516;8.596;2023-01-28T11:50:56;2.70;99.90
61253;DHT22;47127;47.516;8.596;2023-01-28T11:56:50;2.80;99.90
61253;DHT22;47127;47.516;8.596;2023-01-28T11:59:40;2.50;99.90
61253;DHT22;47127;47.516;8.596;2023-01-28T12:02:42;2.60;99.90
61253;DHT22;47127;47.516;8.596;2023-01-28T12:05:34;2.50;99.90
61253;DHT22;47127;47.516;8.596;2023-01-28T12:08:08;2.40;99.90
61253;DHT22;47127;47.516;8.596;2023-01-28T12:13:40;2.40;99.90
61253;DHT22;47127;47.516;8.596;2023-01-28T12:16:42;2.60;99.90
61253;DHT22;47127;47.516;8.596;2023-01-28T12:22:08;2.40;99.90
61253;DHT22;47127;47.516;8.596;2023-01-28T12:25:10;2.40;99.90
61253;DHT22;47127;47.516;8.596;2023-01-28T12:28:07;2.60;99.90
61253;DHT22;47127;47.516;8.596;2023-01-28T12:33:26;2.70;99.90
61253;DHT22;47127;47.516;8.596;2023-01-28T12:36:15;2.60;99.90
61253;DHT22;47127;47.516;8.596;2023-01-28T12:39:14;2.60;99.90
61253;DHT22;47127;47.516;8.596;2023-01-28T12:41:45;2.70;99.90
61253;DHT22;47127;47.516;8.596;2023-01-28T12:44:33;2.80;99.90
61253;DHT22;47127;47.516;8.596;2023-01-28T12:47:06;2.60;99.90
61253;DHT22;47127;47.516;8.596;2023-01-28T12:49:39;2.70;99.90
61253;DHT22;47127;47.516;8.596;2023-01-28T12:52:13;2.70;99.90
61253;DHT22;47127;47.516;8.596;2023-01-28T12:55:00;2.60;99.90
61253;DHT22;47127;47.516;8.596;2023-01-28T12:57:30;2.70;99.90
61253;DHT22;47127;47.516;8.596;2023-01-28T13:00:16;2.60;99.90
61253;DHT22;47127;47.516;8.596;2023-01-28T13:02:54;2.60;99.90
61253;DHT22;47127;47.516;8.596;2023-01-28T13:05:26;2.60;99.90
61253;DHT22;47127;47.516;8.596;2023-01-28T13:08:02;2.70;99.90
61253;DHT22;47127;47.516;8.596;2023-01-28T13:10:40;2.60;99.90
61253;DHT22;47127;47.516;8.596;2023-01-28T13:13:08;2.80;99.90
61253;DHT22;47127;47.516;8.596;2023-01-28T13:15:40;2.80;99.90
61253;DHT22;47127;47.516;8.596;2023-01-28T13:18:27;2.80;99.90
61253;DHT22;47127;47.516;8.596;2023-01-28T13:20:52;2.80;99.90
61253;DHT22;47127;47.516;8.596;2023-01-28T13:25:53;2.60;99.90
61253;DHT22;47127;47.516;8.596;2023-01-28T13:28:27;2.80;99.90
61253;DHT22;47127;47.516;8.596;2023-01-28T13:31:18;2.60;99.90
61253;DHT22;47127;47.516;8.596;2023-01-28T13:34:01;2.80;99.90
61253;DHT22;47127;47.516;8.596;2023-01-28T13:36:33;2.80;99.90
61253;DHT22;47127;47.516;8.596;2023-01-28T13:39:14;2.80;99.90
61253;DHT22;47127;47.516;8.596;2023-01-28T13:42:08;2.60;99.90
61253;DHT22;47127;47.516;8.596;2023-01-28T13:44:35;2.70;99.90
61253;DHT22;47127;47.516;8.596;2023-01-28T13:49:53;2.80;99.90
61253;DHT22;47127;47.516;8.596;2023-01-28T13:52:27;2.60;99.90
61253;DHT22;47127;47.516;8.596;2023-01-28T14:00:29;2.60;99.90
61253;DHT22;47127;47.516;8.596;2023-01-28T14:08:57;2.70;99.90
61253;DHT22;47127;47.516;8.596;2023-01-28T14:16:51;2.60;99.90
61253;DHT22;47127;47.516;8.596;2023-01-28T14:19:28;2.70;99.90
61253;DHT22;47127;47.516;8.596;2023-01-28T14:21:55;2.80;99.90
61253;DHT22;47127;47.516;8.596;2023-01-28T14:24:21;2.80;99.90
61253;DHT22;47127;47.516;8.596;2023-01-28T14:29:59;2.80;99.90
61253;DHT22;47127;47.516;8.596;2023-01-28T14:32:29;2.70;99.90
61253;DHT22;47127;47.516;8.596;2023-01-28T14:34:57;2.70;99.90
61253;DHT22;47127;47.516;8.596;2023-01-28T14:37:28;2.70;99.90
61253;DHT22;47127;47.516;8.596;2023-01-28T14:40:00;2.60;99.90
61253;DHT22;47127;47.516;8.596;2023-01-28T14:42:28;2.60;99.90
61253;DHT22;47127;47.516;8.596;2023-01-28T14:53:45;2.60;99.90
61253;DHT22;47127;47.516;8.596;2023-01-28T14:56:43;2.60;99.90
61253;DHT22;47127;47.516;8.596;2023-01-28T14:59:42;2.50;99.90
61253;DHT22;47127;47.516;8.596;2023-01-28T15:02:28;2.50;99.90
61253;DHT22;47127;47.516;8.596;2023-01-28T15:04:54;2.50;99.90
61253;DHT22;47127;47.516;8.596;2023-01-28T15:07:31;2.40;99.90
61253;DHT22;47127;47.516;8.596;2023-01-28T15:12:27;2.30;99.90
61253;DHT22;47127;47.516;8.596;2023-01-28T15:14:52;2.30;99.90
61253;DHT22;47127;47.516;8.596;2023-01-28T15:17:23;2.40;99.90
61253;DHT22;47127;47.516;8.596;2023-01-28T15:19:51;2.40;99.90
61253;DHT22;47127;47.516;8.596;2023-01-28T15:22:25;2.30;99.90
61253;DHT22;47127;47.516;8.596;2023-01-28T15:24:51;2.40;99.90
61253;DHT22;47127;47.516;8.596;2023-01-28T15:27:28;2.30;99.90
61253;DHT22;47127;47.516;8.596;2023-01-28T15:29:56;2.40;99.90
61253;DHT22;47127;47.516;8.596;2023-01-28T15:32:27;2.60;99.90
61253;DHT22;47127;47.516;8.596;2023-01-28T15:34:54;2.60;99.90
61253;DHT22;47127;47.516;8.596;2023-01-28T15:37:20;2.60;99.90
61253;DHT22;47127;47.516;8.596;2023-01-28T15:39:46;2.50;99.90
61253;DHT22;47127;47.516;8.596;2023-01-28T15:42:23;2.40;99.90
61253;DHT22;47127;47.516;8.596;2023-01-28T15:44:51;2.50;99.90
61253;DHT22;47127;47.516;8.596;2023-01-28T15:47:29;2.20;99.90
61253;DHT22;47127;47.516;8.596;2023-01-28T15:49:59;2.40;99.90
61253;DHT22;47127;47.516;8.596;2023-01-28T15:52:40;2.50;99.90
61253;DHT22;47127;47.516;8.596;2023-01-28T15:55:30;2.30;99.90
61253;DHT22;47127;47.516;8.596;2023-01-28T15:57:56;2.30;99.90
61253;DHT22;47127;47.516;8.596;2023-01-28T16:00:24;2.40;99.90
61253;DHT22;47127;47.516;8.596;2023-01-28T16:02:52;2.30;99.90
61253;DHT22;47127;47.516;8.596;2023-01-28T16:05:33;2.40;99.90
61253;DHT22;47127;47.516;8.596;2023-01-28T16:08:10;2.30;99.90
61253;DHT22;47127;47.516;8.596;2023-01-28T16:10:37;2.30;99.90
61253;DHT22;47127;47.516;8.596;2023-01-28T16:13:05;2.30;99.90
61253;DHT22;47127;47.516;8.596;2023-01-28T16:15:31;2.30;99.90
61253;DHT22;47127;47.516;8.596;2023-01-28T16:17:57;2.40;99.90
61253;DHT22;47127;47.516;8.596;2023-01-28T16:20:27;2.50;99.90
61253;DHT22;47127;47.516;8.596;2023-01-28T16:22:59;2.50;99.90
61253;DHT22;47127;47.516;8.596;2023-01-28T16:25:31;2.40;99.90
61253;DHT22;47127;47.516;8.596;2023-01-28T16:27:58;2.50;99.90
61253;DHT22;47127;47.516;8.596;2023-01-28T16:30:24;2.40;99.90
61253;DHT22;47127;47.516;8.596;2023-01-28T16:32:50;2.40;99.90
61253;DHT22;47127;47.516;8.596;2023-01-28T16:35:20;2.40;99.90
61253;DHT22;47127;47.516;8.596;2023-01-28T16:37:47;2.30;99.90
61253;DHT22;47127;47.516;8.596;2023-01-28T16:40:16;2.30;99.90
61253;DHT22;47127;47.516;8.596;2023-01-28T16:42:41;2.40;99.90
61253;DHT22;47127;47.516;8.596;2023-01-28T16:45:16;2.50;99.90
61253;DHT22;47127;47.516;8.596;2023-01-28T16:47:42;2.60;99.90
61253;DHT22;47127;47.516;8.596;2023-01-28T16:50:09;2.50;99.90
61253;DHT22;47127;47.516;8.596;2023-01-28T16:52:35;2.40;99.90
61253;DHT22;47127;47.516;8.596;2023-01-28T16:55:01;2.40;99.90
61253;DHT22;47127;47.516;8.596;2023-01-28T16:57:27;2.30;99.90
61253;DHT22;47127;47.516;8.596;2023-01-28T16:59:54;2.50;99.90
61253;DHT22;47127;47.516;8.596;2023-01-28T17:02:19;2.50;99.90
61253;DHT22;47127;47.516;8.596;2023-01-28T17:04:45;2.60;99.90
61253;DHT22;47127;47.516;8.596;2023-01-28T17:07:10;2.50;99.90
61253;DHT22;47127;47.516;8.596;2023-01-28T17:09:36;2.50;99.90
61253;DHT22;47127;47.516;8.596;2023-01-28T17:12:02;2.60;99.90
61253;DHT22;47127;47.516;8.596;2023-01-28T17:14:28;2.60;99.90
61253;DHT22;47127;47.516;8.596;2023-01-28T17:16:53;2.50;99.90
61253;DHT22;47127;47.516;8.596;2023-01-28T17:19:19;2.40;99.90
61253;DHT22;47127;47.516;8.596;2023-01-28T17:21:45;2.30;99.90
61253;DHT22;47127;47.516;8.596;2023-01-28T17:24:10;2.40;99.90
61253;DHT22;47127;47.516;8.596;2023-01-28T17:26:36;2.50;99.90